Time;durP1;ratioP1;P1;durP2;ratioP2;P2;SDS_P1;SDS_P2;PMS_P1;PMS_P2;Temp;Humidity;BMP_temperature;BMP_pressure;BME280_temperature;BME280_humidity;BME280_pressure;Samples;Min_cycle;Max_cycle;Signal;HPM_P1;HPM_P2
2022/05/30 00:02:10;;;;;;;3.22;2.35;;;;;;;;;;6342387;28;20006;-84
2022/05/30 00:05:12;;;;;;;3.25;2.13;;;;;;;;;;6318213;28;20059;-84
2022/05/30 00:08:17;;;;;;;2.85;1.98;;;;;;;;;;6326634;28;20054;-82
2022/05/30 00:11:19;;;;;;;2.65;2.22;;;;;;;;;;6343194;28;20092;-82
2022/05/30 00:14:20;;;;;;;2.35;1.98;;;;;;;;;;6336175;27;20128;-83
2022/05/30 00:17:22;;;;;;;2.80;2.20;;;;;;;;;;6314457;28;20824;-84
2022/05/30 00:20:24;;;;;;;3.00;1.90;;;;;;;;;;6326194;28;20051;-82
2022/05/30 00:23:26;;;;;;;4.05;2.40;;;;;;;;;;6326113;28;20484;-84
2022/05/30 00:26:27;;;;;;;3.92;2.38;;;;;;;;;;6350740;27;20047;-83
2022/05/30 00:29:30;;;;;;;3.03;2.40;;;;;;;;;;6318038;28;20067;-84
2022/05/30 00:32:33;;;;;;;4.60;2.72;;;;;;;;;;6343610;28;20043;-82
2022/05/30 00:35:36;;;;;;;3.78;2.83;;;;;;;;;;6333056;28;20051;-84
2022/05/30 00:38:39;;;;;;;4.10;3.00;;;;;;;;;;6323090;28;20048;-84
2022/05/30 00:41:41;;;;;;;3.50;2.88;;;;;;;;;;6311578;28;20055;-83
2022/05/30 00:44:44;;;;;;;4.38;2.60;;;;;;;;;;6329690;28;20067;-83
2022/05/30 00:47:46;;;;;;;4.88;3.40;;;;;;;;;;6321254;28;20177;-83
2022/05/30 00:50:51;;;;;;;3.83;2.77;;;;;;;;;;6319612;28;20048;-84
2022/05/30 00:53:54;;;;;;;4.30;2.72;;;;;;;;;;6314723;28;20445;-84
2022/05/30 00:56:59;;;;;;;6.90;3.38;;;;;;;;;;6325330;28;20040;-84
2022/05/30 01:00:12;;;;;;;7.50;3.83;;;;;;;;;;6327658;27;20043;-83
2022/05/30 01:06:40;;;;;;;4.50;2.60;;;;;;;;;;6326484;28;20053;-84
2022/05/30 01:09:44;;;;;;;5.28;2.40;;;;;;;;;;6342649;28;20043;-84
2022/05/30 01:12:51;;;;;;;3.70;2.63;;;;;;;;;;6343651;28;20053;-84
2022/05/30 01:15:54;;;;;;;3.40;2.60;;;;;;;;;;6322351;28;20043;-82
2022/05/30 01:19:00;;;;;;;4.20;2.90;;;;;;;;;;6329483;27;20262;-83
2022/05/30 01:22:13;;;;;;;5.43;2.88;;;;;;;;;;6325782;28;20047;-83
2022/05/30 01:25:40;;;;;;;5.60;3.03;;;;;;;;;;6317242;28;20613;-82
2022/05/30 01:29:17;;;;;;;5.50;3.00;;;;;;;;;;6340565;27;20465;-85
2022/05/30 01:32:21;;;;;;;6.25;3.45;;;;;;;;;;6305205;28;20043;-84
2022/05/30 01:35:25;;;;;;;5.93;3.53;;;;;;;;;;6317269;28;20055;-85
2022/05/30 01:38:28;;;;;;;4.43;3.08;;;;;;;;;;6323910;28;20046;-83
2022/05/30 01:41:31;;;;;;;6.35;3.88;;;;;;;;;;6315384;28;20175;-84
2022/05/30 01:44:34;;;;;;;5.25;3.33;;;;;;;;;;6348128;28;20059;-83
2022/05/30 01:47:35;;;;;;;6.32;3.85;;;;;;;;;;6324550;28;20053;-83
2022/05/30 01:50:37;;;;;;;6.30;3.45;;;;;;;;;;6323941;28;20048;-83
2022/05/30 01:53:51;;;;;;;5.05;3.40;;;;;;;;;;6321733;28;20097;-81
2022/05/30 01:57:05;;;;;;;5.43;3.63;;;;;;;;;;6299396;28;20054;-83
2022/05/30 02:00:16;;;;;;;6.18;3.45;;;;;;;;;;6316148;28;20127;-83
2022/05/30 02:03:17;;;;;;;6.38;3.78;;;;;;;;;;6348109;28;20067;-83
2022/05/30 02:06:21;;;;;;;5.28;3.17;;;;;;;;;;6325806;28;20051;-83
2022/05/30 02:09:23;;;;;;;4.28;3.08;;;;;;;;;;6342297;28;20103;-82
2022/05/30 02:12:25;;;;;;;3.80;3.10;;;;;;;;;;6334469;28;20516;-83
2022/05/30 02:19:01;;;;;;;4.60;3.40;;;;;;;;;;6332943;28;20040;-83
2022/05/30 02:22:04;;;;;;;4.60;3.13;;;;;;;;;;6318767;28;20044;-83
2022/05/30 02:25:06;;;;;;;5.40;3.20;;;;;;;;;;6326147;28;20048;-82
2022/05/30 02:28:08;;;;;;;4.20;3.00;;;;;;;;;;6322218;28;20051;-84
2022/05/30 02:31:09;;;;;;;6.38;3.40;;;;;;;;;;6323014;28;20260;-83
2022/05/30 02:37:34;;;;;;;4.97;3.15;;;;;;;;;;6321246;28;20396;-83
2022/05/30 02:40:49;;;;;;;4.10;3.13;;;;;;;;;;6346759;27;20685;-84
2022/05/30 02:44:20;;;;;;;4.53;2.78;;;;;;;;;;6317392;28;20093;-85
2022/05/30 02:47:21;;;;;;;4.40;2.92;;;;;;;;;;6331106;28;20493;-85
2022/05/30 02:50:32;;;;;;;5.35;3.60;;;;;;;;;;6328132;28;20070;-83
2022/05/30 02:53:34;;;;;;;4.40;3.20;;;;;;;;;;6312608;28;20123;-84
2022/05/30 02:56:59;;;;;;;5.20;3.22;;;;;;;;;;6286465;28;20497;-85
2022/05/30 03:00:04;;;;;;;5.85;3.78;;;;;;;;;;6331029;28;20409;-84
2022/05/30 03:03:09;;;;;;;5.70;3.78;;;;;;;;;;6346383;28;20134;-85
2022/05/30 03:06:11;;;;;;;4.90;3.70;;;;;;;;;;6317887;28;20054;-83
2022/05/30 03:09:14;;;;;;;5.55;3.53;;;;;;;;;;6327872;28;20043;-84
2022/05/30 03:12:54;;;;;;;4.63;3.20;;;;;;;;;;6302653;28;20128;-85
2022/05/30 03:15:58;;;;;;;5.20;3.08;;;;;;;;;;6347029;28;20150;-85
2022/05/30 03:19:00;;;;;;;4.05;3.03;;;;;;;;;;6315570;27;20609;-84
2022/05/30 03:22:02;;;;;;;6.35;3.08;;;;;;;;;;6347412;27;20048;-85
2022/05/30 03:25:16;;;;;;;6.30;3.15;;;;;;;;;;6310577;28;20039;-82
2022/05/30 03:28:18;;;;;;;6.10;3.38;;;;;;;;;;6322144;28;20063;-82
2022/05/30 03:31:20;;;;;;;7.45;3.92;;;;;;;;;;6328978;28;20162;-82
2022/05/30 03:34:23;;;;;;;5.60;3.85;;;;;;;;;;6323198;28;20043;-81
2022/05/30 03:37:26;;;;;;;6.50;3.95;;;;;;;;;;6338180;28;20035;-82
2022/05/30 03:40:40;;;;;;;6.32;4.05;;;;;;;;;;6323351;28;20040;-82
2022/05/30 03:44:05;;;;;;;5.40;3.85;;;;;;;;;;6325013;28;20365;-79
2022/05/30 03:47:08;;;;;;;6.03;3.63;;;;;;;;;;6331894;27;20122;-81
2022/05/30 03:50:12;;;;;;;5.63;3.97;;;;;;;;;;6332173;28;20047;-81
2022/05/30 03:53:14;;;;;;;6.95;3.70;;;;;;;;;;6342563;27;20039;-81
2022/05/30 03:56:19;;;;;;;4.70;3.40;;;;;;;;;;6356336;27;20280;-82
2022/05/30 03:59:22;;;;;;;6.40;3.50;;;;;;;;;;6337857;28;20048;-82
2022/05/30 04:02:25;;;;;;;5.07;3.30;;;;;;;;;;6337057;27;20072;-83
2022/05/30 04:05:27;;;;;;;5.25;3.35;;;;;;;;;;6348248;27;20149;-84
2022/05/30 04:08:29;;;;;;;7.73;4.23;;;;;;;;;;6316733;27;20040;-83
2022/05/30 04:11:50;;;;;;;4.72;3.22;;;;;;;;;;6335323;27;20095;-83
2022/05/30 04:15:20;;;;;;;7.20;3.40;;;;;;;;;;6291598;28;20051;-81
2022/05/30 04:18:23;;;;;;;7.05;3.63;;;;;;;;;;6320875;28;20039;-82
2022/05/30 04:21:25;;;;;;;6.82;3.65;;;;;;;;;;6326439;28;20035;-83
2022/05/30 04:24:26;;;;;;;6.50;4.13;;;;;;;;;;6339071;28;20092;-83
2022/05/30 04:27:34;;;;;;;5.30;3.63;;;;;;;;;;6323581;27;20050;-83
2022/05/30 04:30:36;;;;;;;6.32;4.00;;;;;;;;;;6326214;28;20043;-81
2022/05/30 04:33:41;;;;;;;5.95;4.03;;;;;;;;;;6329374;28;20128;-83
2022/05/30 04:36:43;;;;;;;6.67;4.17;;;;;;;;;;6316004;28;20047;-82
2022/05/30 04:39:45;;;;;;;7.30;3.70;;;;;;;;;;6325373;28;20456;-82
2022/05/30 04:43:06;;;;;;;6.63;3.83;;;;;;;;;;6344522;28;20052;-82
2022/05/30 04:46:26;;;;;;;5.10;3.75;;;;;;;;;;6328621;28;20040;-83
2022/05/30 04:49:28;;;;;;;5.88;3.40;;;;;;;;;;6341760;27;20139;-82
2022/05/30 04:52:30;;;;;;;4.60;3.00;;;;;;;;;;6332663;28;20101;-83
2022/05/30 04:55:38;;;;;;;5.28;3.15;;;;;;;;;;6338465;28;20099;-82
2022/05/30 04:58:44;;;;;;;4.55;2.92;;;;;;;;;;6312748;28;20044;-83
2022/05/30 05:01:51;;;;;;;6.20;3.60;;;;;;;;;;6326790;28;20043;-83
2022/05/30 05:04:53;;;;;;;5.93;3.75;;;;;;;;;;6330635;27;20043;-83
2022/05/30 05:08:05;;;;;;;5.82;4.05;;;;;;;;;;6346795;27;20068;-83
2022/05/30 05:11:23;;;;;;;7.10;3.90;;;;;;;;;;6354473;27;20103;-82
2022/05/30 05:14:54;;;;;;;8.15;4.00;;;;;;;;;;6332022;28;20040;-82
2022/05/30 05:18:14;;;;;;;7.35;4.30;;;;;;;;;;6342713;28;20399;-83
2022/05/30 05:21:23;;;;;;;5.83;3.73;;;;;;;;;;6330283;28;20059;-83
2022/05/30 05:24:30;;;;;;;7.13;3.50;;;;;;;;;;6335836;28;20104;-83
2022/05/30 05:27:50;;;;;;;7.20;3.80;;;;;;;;;;6340558;28;20039;-83
2022/05/30 05:30:52;;;;;;;4.63;3.50;;;;;;;;;;6325234;28;20420;-83
2022/05/30 05:33:57;;;;;;;4.78;3.55;;;;;;;;;;6317122;28;20100;-83
2022/05/30 05:37:00;;;;;;;5.68;3.97;;;;;;;;;;6345801;28;20381;-84
2022/05/30 05:40:06;;;;;;;5.97;3.90;;;;;;;;;;6325967;28;20050;-82
2022/05/30 05:43:09;;;;;;;4.07;3.42;;;;;;;;;;6323619;28;20056;-82
2022/05/30 05:46:15;;;;;;;6.88;3.60;;;;;;;;;;6349602;27;20051;-82
2022/05/30 05:49:18;;;;;;;4.60;3.28;;;;;;;;;;6330434;28;20043;-82
2022/05/30 05:52:20;;;;;;;4.30;3.30;;;;;;;;;;6332610;28;20043;-81
2022/05/30 05:55:22;;;;;;;6.97;3.72;;;;;;;;;;6337529;28;20071;-81
2022/05/30 05:58:23;;;;;;;4.25;2.90;;;;;;;;;;6325426;28;20039;-82
2022/05/30 06:01:28;;;;;;;4.20;2.85;;;;;;;;;;6324080;28;20728;-83
2022/05/30 06:04:30;;;;;;;4.38;2.50;;;;;;;;;;6326973;28;20035;-81
2022/05/30 06:08:03;;;;;;;3.35;2.50;;;;;;;;;;6336854;28;20048;-81
2022/05/30 06:11:25;;;;;;;5.35;2.72;;;;;;;;;;6326101;28;20031;-82
2022/05/30 06:14:32;;;;;;;5.57;2.80;;;;;;;;;;6342237;27;20047;-83
2022/05/30 06:17:39;;;;;;;4.97;3.05;;;;;;;;;;6323735;28;20520;-82
2022/05/30 06:20:41;;;;;;;5.45;2.90;;;;;;;;;;6316527;28;20040;-82
2022/05/30 06:23:46;;;;;;;5.38;2.33;;;;;;;;;;6322564;28;20048;-81
2022/05/30 06:27:10;;;;;;;3.92;2.50;;;;;;;;;;6338669;28;20039;-80
2022/05/30 06:30:35;;;;;;;4.72;2.70;;;;;;;;;;6318342;28;20040;-81
2022/05/30 06:33:38;;;;;;;4.97;2.50;;;;;;;;;;6326148;28;20111;-82
2022/05/30 06:36:44;;;;;;;4.63;2.75;;;;;;;;;;6327850;28;20053;-81
2022/05/30 06:39:46;;;;;;;3.00;2.40;;;;;;;;;;6341380;28;20044;-84
2022/05/30 06:42:59;;;;;;;;;;;;;;;;;;6332302;27;20118;-82
2022/05/30 06:46:04;;;;;;;4.00;2.45;;;;;;;;;;6346989;27;19920;-81
2022/05/30 06:49:24;;;;;;;4.22;2.22;;;;;;;;;;6343784;28;20036;-81
2022/05/30 06:52:31;;;;;;;4.00;2.33;;;;;;;;;;6324741;28;20424;-80
2022/05/30 06:55:32;;;;;;;6.55;2.65;;;;;;;;;;6330273;28;20055;-81
2022/05/30 06:58:34;;;;;;;4.65;2.42;;;;;;;;;;6351578;27;20039;-80
2022/05/30 07:01:37;;;;;;;4.97;2.63;;;;;;;;;;6318925;28;20040;-81
2022/05/30 07:04:57;;;;;;;3.90;2.47;;;;;;;;;;6340421;28;20043;-82
2022/05/30 07:08:19;;;;;;;3.20;2.38;;;;;;;;;;6307173;28;20096;-81
2022/05/30 07:11:30;;;;;;;5.25;2.50;;;;;;;;;;6329023;27;20071;-82
2022/05/30 07:14:32;;;;;;;3.23;2.17;;;;;;;;;;6327440;28;20134;-80
2022/05/30 07:17:35;;;;;;;3.45;2.03;;;;;;;;;;6323647;28;20656;-81
2022/05/30 07:20:37;;;;;;;5.07;2.20;;;;;;;;;;6322164;28;20918;-80
2022/05/30 07:23:57;;;;;;;4.13;2.30;;;;;;;;;;6334058;28;20036;-81
2022/05/30 07:27:18;;;;;;;6.30;2.40;;;;;;;;;;6338440;28;20035;-80
2022/05/30 07:30:51;;;;;;;;;;;;;;;;;;6309736;28;20073;-80
2022/05/30 07:34:11;;;;;;;5.68;2.22;;;;;;;;;;6336520;28;19923;-81
2022/05/30 07:37:32;;;;;;;6.35;2.03;;;;;;;;;;6340545;28;20134;-81
2022/05/30 07:40:49;;;;;;;6.25;2.00;;;;;;;;;;6334378;28;20040;-81
2022/05/30 07:44:10;;;;;;;3.88;2.13;;;;;;;;;;6346769;27;20086;-81
2022/05/30 07:47:20;;;;;;;4.75;1.88;;;;;;;;;;6326468;28;20039;-81
2022/05/30 07:50:35;;;;;;;3.58;1.92;;;;;;;;;;6323355;28;20044;-81
2022/05/30 07:53:59;;;;;;;7.13;1.73;;;;;;;;;;6323572;28;20040;-81
2022/05/30 07:57:06;;;;;;;4.95;1.63;;;;;;;;;;6343175;28;20100;-81
2022/05/30 08:00:08;;;;;;;4.25;1.63;;;;;;;;;;6331688;27;20048;-80
2022/05/30 08:03:14;;;;;;;1.98;1.50;;;;;;;;;;6331396;28;20135;-81
2022/05/30 08:06:26;;;;;;;3.40;1.70;;;;;;;;;;6320541;28;20047;-82
2022/05/30 08:09:46;;;;;;;3.50;1.30;;;;;;;;;;6338128;28;20048;-81
2022/05/30 08:12:57;;;;;;;2.05;1.50;;;;;;;;;;6324997;27;20113;-81
2022/05/30 08:16:16;;;;;;;2.20;1.58;;;;;;;;;;6329519;28;20051;-81
2022/05/30 08:19:40;;;;;;;4.35;1.20;;;;;;;;;;6333639;27;20101;-81
2022/05/30 08:22:51;;;;;;;3.50;1.10;;;;;;;;;;6318265;28;20067;-82
2022/05/30 08:25:54;;;;;;;3.55;1.40;;;;;;;;;;6335156;27;20046;-82
2022/05/30 08:28:59;;;;;;;2.38;1.30;;;;;;;;;;6329493;27;20047;-81
2022/05/30 08:32:01;;;;;;;3.10;1.40;;;;;;;;;;6331619;27;20122;-82
2022/05/30 08:35:23;;;;;;;4.22;1.50;;;;;;;;;;6338649;27;20172;-82
2022/05/30 08:38:25;;;;;;;;;;;;;;;;;;6337059;28;20408;-82
2022/05/30 08:45:08;;;;;;;2.63;1.13;;;;;;;;;;6331576;28;20074;-82
2022/05/30 08:49:16;;;;;;;1.98;1.02;;;;;;;;;;6334406;27;20044;-82
2022/05/30 08:52:36;;;;;;;2.08;1.00;;;;;;;;;;6329726;28;20090;-83
2022/05/30 08:55:46;;;;;;;1.58;1.00;;;;;;;;;;6331451;27;20071;-82
2022/05/30 08:59:19;;;;;;;1.85;0.98;;;;;;;;;;6334602;27;20066;-81
2022/05/30 09:02:33;;;;;;;1.73;0.80;;;;;;;;;;6310316;27;20043;-82
2022/05/30 09:05:47;;;;;;;1.60;1.00;;;;;;;;;;6328870;28;20044;-82
2022/05/30 09:08:55;;;;;;;2.15;1.00;;;;;;;;;;6325468;28;20058;-81
2022/05/30 09:12:23;;;;;;;2.97;0.90;;;;;;;;;;6326998;28;20040;-82
2022/05/30 09:15:58;;;;;;;3.72;0.90;;;;;;;;;;6304976;28;20104;-81
2022/05/30 09:19:03;;;;;;;2.05;0.90;;;;;;;;;;6338540;28;20059;-80
2022/05/30 09:22:07;;;;;;;1.50;1.00;;;;;;;;;;6322912;28;20078;-81
2022/05/30 09:29:15;;;;;;;2.42;0.90;;;;;;;;;;6342428;28;20128;-82
2022/05/30 09:32:36;;;;;;;2.45;0.95;;;;;;;;;;6341130;28;20055;-81
2022/05/30 09:36:19;;;;;;;1.10;0.98;;;;;;;;;;6217841;28;20045;-82
2022/05/30 09:39:44;;;;;;;0.98;0.70;;;;;;;;;;6335932;28;20040;-81
2022/05/30 09:42:53;;;;;;;1.75;0.70;;;;;;;;;;6312582;28;20036;-80
2022/05/30 09:45:55;;;;;;;1.83;0.85;;;;;;;;;;6328306;28;20054;-81
2022/05/30 09:49:47;;;;;;;2.33;0.80;;;;;;;;;;6281813;28;20060;-78
2022/05/30 09:52:48;;;;;;;2.30;0.93;;;;;;;;;;6313335;28;20052;-80
2022/05/30 09:55:56;;;;;;;1.83;0.68;;;;;;;;;;6321415;28;20051;-78
2022/05/30 09:59:05;;;;;;;1.42;1.05;;;;;;;;;;6327961;27;20039;-77
2022/05/30 10:02:34;;;;;;;0.88;0.80;;;;;;;;;;6318031;28;20051;-79
2022/05/30 10:05:38;;;;;;;1.13;0.73;;;;;;;;;;6313835;28;20115;-80
2022/05/30 10:08:44;;;;;;;1.92;0.80;;;;;;;;;;6323353;28;20043;-80
2022/05/30 10:11:56;;;;;;;1.48;0.70;;;;;;;;;;6339288;28;20042;-80
2022/05/30 10:14:58;;;;;;;1.75;0.80;;;;;;;;;;6329205;28;20039;-80
2022/05/30 10:18:10;;;;;;;1.88;0.73;;;;;;;;;;6342919;28;20054;-80
2022/05/30 10:21:36;;;;;;;1.17;0.80;;;;;;;;;;6342610;28;20043;-81
2022/05/30 10:30:04;;;;;;;1.63;1.10;;;;;;;;;;6337485;27;20068;-80
2022/05/30 10:33:44;;;;;;;1.92;0.95;;;;;;;;;;6341195;28;20047;-80
2022/05/30 10:37:02;;;;;;;1.13;0.90;;;;;;;;;;6318915;27;20073;-78
2022/05/30 10:40:28;;;;;;;1.90;1.10;;;;;;;;;;6339293;28;20047;-78
2022/05/30 10:43:39;;;;;;;2.65;1.15;;;;;;;;;;6341567;27;20043;-80
2022/05/30 10:47:00;;;;;;;1.15;1.00;;;;;;;;;;6340049;28;20047;-80
2022/05/30 10:50:15;;;;;;;3.00;1.00;;;;;;;;;;6311087;28;20555;-79
2022/05/30 10:53:36;;;;;;;3.03;1.35;;;;;;;;;;6362941;27;20063;-80
2022/05/30 10:57:06;;;;;;;1.95;1.05;;;;;;;;;;6341190;28;20047;-81
2022/05/30 11:00:12;;;;;;;1.77;1.40;;;;;;;;;;6321833;27;20131;-82
2022/05/30 11:03:45;;;;;;;4.28;1.30;;;;;;;;;;6338169;27;20035;-80
2022/05/30 11:06:49;;;;;;;4.10;1.30;;;;;;;;;;6359745;27;20051;-81
2022/05/30 11:10:21;;;;;;;2.70;1.42;;;;;;;;;;6307883;28;20040;-81
2022/05/30 11:13:52;;;;;;;4.05;1.38;;;;;;;;;;6335540;27;20520;-81
2022/05/30 11:18:01;;;;;;;2.45;1.38;;;;;;;;;;6340119;27;20047;-81
2022/05/30 11:21:56;;;;;;;3.90;1.40;;;;;;;;;;6308904;28;20040;-81
2022/05/30 11:24:57;;;;;;;2.05;1.50;;;;;;;;;;6298856;28;20040;-81
2022/05/30 11:28:08;;;;;;;2.17;1.10;;;;;;;;;;6346303;27;20049;-81
2022/05/30 11:31:39;;;;;;;2.85;1.10;;;;;;;;;;6343524;27;20180;-81
2022/05/30 11:35:11;;;;;;;3.17;1.10;;;;;;;;;;6263899;28;20059;-81
2022/05/30 11:38:39;;;;;;;2.67;1.20;;;;;;;;;;6340657;27;20401;-81
2022/05/30 11:42:04;;;;;;;1.70;1.08;;;;;;;;;;6346618;27;20055;-81
2022/05/30 11:45:28;;;;;;;1.63;0.95;;;;;;;;;;6301971;28;20179;-82
2022/05/30 11:48:47;;;;;;;2.90;0.90;;;;;;;;;;6338623;27;20055;-82
2022/05/30 11:52:16;;;;;;;3.08;1.00;;;;;;;;;;6331359;27;20055;-81
2022/05/30 11:55:38;;;;;;;3.58;1.10;;;;;;;;;;6343401;27;20041;-83
2022/05/30 11:58:52;;;;;;;2.28;0.95;;;;;;;;;;6339866;28;20047;-82
2022/05/30 12:01:57;;;;;;;2.35;1.08;;;;;;;;;;6334614;28;20058;-82
2022/05/30 12:05:17;;;;;;;3.03;1.30;;;;;;;;;;6340681;27;20137;-81
2022/05/30 12:08:40;;;;;;;2.05;1.13;;;;;;;;;;6317681;28;20043;-81
2022/05/30 12:11:48;;;;;;;;;;;;;;;;;;6334535;28;20036;-81
2022/05/30 12:15:23;;;;;;;1.50;1.10;;;;;;;;;;6335917;28;19951;-81
2022/05/30 12:25:46;;;;;;;3.20;1.05;;;;;;;;;;6348921;27;20054;-83
2022/05/30 12:28:48;;;;;;;2.47;1.20;;;;;;;;;;6364831;27;20052;-83
2022/05/30 12:32:17;;;;;;;2.88;1.08;;;;;;;;;;6348619;28;20056;-82
2022/05/30 12:35:26;;;;;;;1.70;1.00;;;;;;;;;;6350799;28;20127;-83
2022/05/30 12:38:51;;;;;;;4.03;1.33;;;;;;;;;;6328048;28;20044;-82
2022/05/30 12:42:00;;;;;;;1.77;1.10;;;;;;;;;;6335433;28;20255;-83
2022/05/30 12:45:34;;;;;;;1.27;0.80;;;;;;;;;;6336563;28;20103;-83
2022/05/30 12:48:56;;;;;;;2.00;0.80;;;;;;;;;;6355136;28;20577;-86
2022/05/30 12:52:35;;;;;;;1.75;0.85;;;;;;;;;;6330185;28;20116;-81
2022/05/30 12:55:46;;;;;;;2.30;0.95;;;;;;;;;;6348773;28;20152;-83
2022/05/30 12:59:05;;;;;;;2.08;0.80;;;;;;;;;;6335024;28;20067;-82
2022/05/30 13:02:14;;;;;;;1.45;0.85;;;;;;;;;;6335405;28;20050;-81
2022/05/30 13:05:46;;;;;;;2.78;1.25;;;;;;;;;;6335761;28;20368;-81
2022/05/30 13:08:50;;;;;;;1.30;0.75;;;;;;;;;;6346356;28;20083;-80
2022/05/30 13:12:10;;;;;;;2.65;0.73;;;;;;;;;;6343665;28;20046;-80
2022/05/30 13:15:35;;;;;;;2.53;1.00;;;;;;;;;;6347628;28;20265;-81
2022/05/30 13:18:38;;;;;;;3.50;0.90;;;;;;;;;;6320704;28;20059;-81
2022/05/30 13:21:48;;;;;;;1.90;0.80;;;;;;;;;;6347882;27;20122;-80
2022/05/30 13:24:52;;;;;;;2.67;1.00;;;;;;;;;;6336024;27;20361;-83
2022/05/30 13:27:55;;;;;;;1.30;0.85;;;;;;;;;;6340119;28;20099;-81
2022/05/30 13:31:00;;;;;;;2.15;0.90;;;;;;;;;;6328850;28;20039;-79
2022/05/30 13:34:02;;;;;;;1.98;1.10;;;;;;;;;;6338743;28;20658;-81
2022/05/30 13:37:04;;;;;;;2.78;0.90;;;;;;;;;;6338437;28;20165;-80
2022/05/30 13:40:09;;;;;;;3.53;1.03;;;;;;;;;;6336034;28;20126;-82
2022/05/30 13:43:19;;;;;;;2.03;1.05;;;;;;;;;;6321606;28;20075;-82
2022/05/30 13:46:55;;;;;;;1.35;1.02;;;;;;;;;;6332852;28;20047;-80
2022/05/30 13:49:57;;;;;;;2.97;1.30;;;;;;;;;;6336672;28;20093;-79
2022/05/30 13:52:59;;;;;;;1.58;0.75;;;;;;;;;;6337779;28;20051;-79
2022/05/30 13:56:09;;;;;;;3.63;1.15;;;;;;;;;;6336160;28;20177;-82
2022/05/30 13:59:13;;;;;;;2.35;0.90;;;;;;;;;;6343788;28;20127;-81
2022/05/30 14:02:19;;;;;;;3.80;2.00;;;;;;;;;;6340419;28;20054;-82
2022/05/30 14:05:42;;;;;;;2.20;1.00;;;;;;;;;;6332011;28;20047;-82
2022/05/30 14:08:44;;;;;;;2.97;1.17;;;;;;;;;;6329461;28;20040;-81
2022/05/30 14:11:58;;;;;;;2.72;1.00;;;;;;;;;;6344611;28;20050;-81
2022/05/30 14:15:19;;;;;;;4.40;1.30;;;;;;;;;;6337618;28;20047;-81
2022/05/30 14:18:42;;;;;;;5.50;1.13;;;;;;;;;;6349182;28;20470;-80
2022/05/30 14:21:54;;;;;;;1.60;0.90;;;;;;;;;;6283315;27;20527;-81
2022/05/30 14:24:59;;;;;;;2.05;1.17;;;;;;;;;;6330530;28;20067;-81
2022/05/30 14:28:08;;;;;;;4.18;1.10;;;;;;;;;;6344469;28;20051;-80
2022/05/30 14:31:14;;;;;;;2.40;1.05;;;;;;;;;;6340306;28;20047;-80
2022/05/30 14:34:17;;;;;;;4.63;1.30;;;;;;;;;;6341254;28;20055;-82
2022/05/30 14:37:41;;;;;;;1.92;1.30;;;;;;;;;;6320008;28;20048;-81
2022/05/30 14:40:49;;;;;;;3.47;1.10;;;;;;;;;;6335376;28;20138;-82
2022/05/30 14:43:56;;;;;;;3.88;1.10;;;;;;;;;;6318130;28;20405;-82
2022/05/30 14:46:58;;;;;;;1.73;1.15;;;;;;;;;;6334206;28;20115;-82
2022/05/30 14:50:13;;;;;;;3.17;1.00;;;;;;;;;;6337406;28;20057;-82
2022/05/30 14:53:19;;;;;;;1.45;1.00;;;;;;;;;;6336642;28;20043;-83
2022/05/30 14:56:25;;;;;;;2.22;1.10;;;;;;;;;;6331354;28;20122;-81
2022/05/30 14:59:38;;;;;;;1.30;1.00;;;;;;;;;;6330656;28;20040;-81
2022/05/30 15:06:00;;;;;;;1.80;1.05;;;;;;;;;;6332676;28;20047;-82
2022/05/30 15:09:04;;;;;;;1.00;0.90;;;;;;;;;;6310410;28;20125;-82
2022/05/30 15:12:06;;;;;;;2.75;1.10;;;;;;;;;;6319878;28;20059;-81
2022/05/30 15:15:08;;;;;;;2.23;1.20;;;;;;;;;;6326426;28;20108;-81
2022/05/30 15:18:09;;;;;;;2.07;0.97;;;;;;;;;;6334088;28;20054;-83
2022/05/30 15:21:35;;;;;;;2.55;1.00;;;;;;;;;;6338276;28;20050;-82
2022/05/30 15:24:39;;;;;;;2.45;1.10;;;;;;;;;;6336429;28;20838;-81
2022/05/30 15:27:41;;;;;;;1.75;1.13;;;;;;;;;;6337739;27;20047;-81
2022/05/30 15:30:43;;;;;;;1.70;0.90;;;;;;;;;;6340542;27;20044;-80
2022/05/30 15:33:51;;;;;;;3.22;1.00;;;;;;;;;;6351291;27;20039;-82
2022/05/30 15:36:53;;;;;;;2.95;1.10;;;;;;;;;;6348655;27;20531;-83
2022/05/30 15:39:55;;;;;;;2.45;1.00;;;;;;;;;;6346376;27;20088;-81
2022/05/30 15:42:57;;;;;;;2.28;1.13;;;;;;;;;;6329599;27;20040;-81
2022/05/30 15:46:03;;;;;;;2.13;0.95;;;;;;;;;;6341841;27;20058;-81
2022/05/30 15:49:05;;;;;;;2.28;0.85;;;;;;;;;;6357166;27;20044;-80
2022/05/30 15:52:11;;;;;;;2.22;0.95;;;;;;;;;;6322560;28;20063;-80
2022/05/30 15:58:33;;;;;;;1.83;1.10;;;;;;;;;;6351548;27;20050;-79
2022/05/30 16:01:34;;;;;;;2.42;0.90;;;;;;;;;;6325683;27;20126;-80
2022/05/30 16:04:36;;;;;;;2.63;0.77;;;;;;;;;;6322640;27;20052;-80
2022/05/30 16:07:39;;;;;;;2.22;0.90;;;;;;;;;;6327056;28;20081;-81
2022/05/30 16:10:40;;;;;;;;;;;;;;;;;;6338605;28;20055;-81
2022/05/30 16:13:43;;;;;;;2.40;0.80;;;;;;;;;;6339297;28;19958;-79
2022/05/30 16:16:45;;;;;;;1.85;0.77;;;;;;;;;;6321829;28;20468;-80
2022/05/30 16:19:46;;;;;;;3.33;0.90;;;;;;;;;;6338678;28;20050;-80
2022/05/30 16:22:48;;;;;;;2.15;1.20;;;;;;;;;;6323375;28;20135;-81
2022/05/30 16:26:06;;;;;;;1.67;0.90;;;;;;;;;;6340592;28;20043;-81
2022/05/30 16:29:07;;;;;;;1.43;0.90;;;;;;;;;;6342909;27;20111;-82
2022/05/30 16:32:10;;;;;;;2.08;0.90;;;;;;;;;;6344008;28;20051;-82
2022/05/30 16:35:13;;;;;;;4.32;0.95;;;;;;;;;;6312669;27;20123;-81
2022/05/30 16:38:16;;;;;;;2.17;0.90;;;;;;;;;;6331064;28;20093;-81
2022/05/30 16:41:18;;;;;;;0.80;0.80;;;;;;;;;;6323591;28;20131;-81
2022/05/30 16:44:23;;;;;;;1.35;0.93;;;;;;;;;;6337863;27;20945;-80
2022/05/30 16:47:27;;;;;;;1.20;1.00;;;;;;;;;;6336790;28;20054;-81
2022/05/30 16:50:29;;;;;;;2.30;0.88;;;;;;;;;;6337255;27;20126;-81
2022/05/30 16:53:31;;;;;;;3.53;1.23;;;;;;;;;;6345843;27;20126;-81
2022/05/30 16:56:34;;;;;;;1.98;1.10;;;;;;;;;;6309826;27;20064;-80
2022/05/30 16:59:36;;;;;;;1.60;1.33;;;;;;;;;;6349007;27;20047;-81
2022/05/30 17:02:38;;;;;;;0.88;0.82;;;;;;;;;;6352817;27;20122;-81
2022/05/30 17:05:46;;;;;;;2.88;1.10;;;;;;;;;;6333164;27;20115;-81
2022/05/30 17:08:48;;;;;;;3.33;1.02;;;;;;;;;;6324336;28;20099;-81
2022/05/30 17:11:55;;;;;;;1.80;1.10;;;;;;;;;;6337143;28;20093;-81
2022/05/30 17:14:58;;;;;;;1.52;1.00;;;;;;;;;;6343124;27;20409;-80
2022/05/30 17:18:00;;;;;;;3.05;1.00;;;;;;;;;;6317907;28;20040;-79
2022/05/30 17:21:02;;;;;;;3.60;1.40;;;;;;;;;;6323284;27;20380;-80
2022/05/30 17:24:04;;;;;;;2.65;1.20;;;;;;;;;;6344537;27;20050;-81
2022/05/30 17:30:26;;;;;;;2.10;1.10;;;;;;;;;;6340779;27;20130;-81
2022/05/30 17:33:29;;;;;;;3.10;1.20;;;;;;;;;;6338358;28;20066;-80
2022/05/30 17:36:31;;;;;;;1.67;1.00;;;;;;;;;;6344704;27;20122;-80
2022/05/30 17:39:33;;;;;;;2.17;1.00;;;;;;;;;;6349285;27;20135;-82
2022/05/30 17:42:36;;;;;;;1.23;1.05;;;;;;;;;;6338189;27;20047;-82
2022/05/30 17:46:18;;;;;;;1.90;1.17;;;;;;;;;;6316139;28;20104;-81
2022/05/30 17:49:50;;;;;;;2.75;1.05;;;;;;;;;;6237374;28;20058;-81
2022/05/30 17:52:59;;;;;;;1.13;0.82;;;;;;;;;;6345514;27;20043;-82
2022/05/30 17:56:05;;;;;;;2.00;1.00;;;;;;;;;;6341141;27;20050;-81
2022/05/30 17:59:08;;;;;;;2.30;1.10;;;;;;;;;;6345997;27;20100;-80
2022/05/30 18:02:10;;;;;;;1.63;1.30;;;;;;;;;;6325349;28;20054;-81
2022/05/30 18:05:14;;;;;;;3.03;1.30;;;;;;;;;;6315826;28;20500;-82
2022/05/30 18:08:24;;;;;;;2.03;1.02;;;;;;;;;;6328703;28;20103;-82
2022/05/30 18:11:43;;;;;;;1.08;1.00;;;;;;;;;;6325176;28;20044;-81
2022/05/30 18:15:00;;;;;;;1.77;1.20;;;;;;;;;;6315716;28;20051;-81
2022/05/30 18:21:59;;;;;;;1.65;1.40;;;;;;;;;;6339029;28;20067;-81
2022/05/30 18:25:13;;;;;;;1.38;1.27;;;;;;;;;;6344465;28;20773;-82
2022/05/30 18:28:16;;;;;;;2.20;1.50;;;;;;;;;;6337042;28;20121;-82
2022/05/30 18:31:50;;;;;;;2.30;1.33;;;;;;;;;;6323855;28;20388;-82
2022/05/30 18:35:05;;;;;;;1.80;1.27;;;;;;;;;;6343494;28;20511;-82
2022/05/30 18:38:29;;;;;;;3.38;1.58;;;;;;;;;;6338489;28;20514;-82
2022/05/30 18:42:03;;;;;;;3.75;1.58;;;;;;;;;;6344024;28;20060;-82
2022/05/30 18:45:08;;;;;;;1.90;1.30;;;;;;;;;;6254133;28;20045;-82
2022/05/30 18:48:17;;;;;;;2.15;1.35;;;;;;;;;;6347207;27;20144;-81
2022/05/30 18:51:19;;;;;;;2.95;2.10;;;;;;;;;;6345174;28;20058;-81
2022/05/30 18:54:21;;;;;;;4.40;1.85;;;;;;;;;;6341317;27;20146;-81
2022/05/30 18:57:35;;;;;;;3.88;1.50;;;;;;;;;;6345965;27;20051;-81
2022/05/30 19:00:38;;;;;;;3.97;1.52;;;;;;;;;;6338750;28;20050;-81
2022/05/30 19:03:40;;;;;;;3.35;1.65;;;;;;;;;;6345692;27;20043;-81
2022/05/30 19:06:43;;;;;;;3.03;1.90;;;;;;;;;;6325159;28;20067;-81
2022/05/30 19:09:46;;;;;;;3.95;1.67;;;;;;;;;;6345920;27;20050;-81
2022/05/30 19:13:03;;;;;;;2.85;1.50;;;;;;;;;;6330851;28;20102;-81
2022/05/30 19:19:40;;;;;;;2.30;1.73;;;;;;;;;;6339349;28;20135;-81
2022/05/30 19:22:45;;;;;;;3.08;1.60;;;;;;;;;;6331930;28;20368;-81
2022/05/30 19:25:50;;;;;;;4.32;1.55;;;;;;;;;;6318931;28;20043;-80
2022/05/30 19:28:52;;;;;;;1.92;1.45;;;;;;;;;;6315978;28;20188;-81
2022/05/30 19:31:58;;;;;;;1.33;1.15;;;;;;;;;;6315926;28;20148;-81
2022/05/30 19:34:59;;;;;;;2.05;1.55;;;;;;;;;;6333653;28;20505;-80
2022/05/30 19:38:05;;;;;;;3.35;1.67;;;;;;;;;;6334672;27;20692;-80
2022/05/30 19:41:08;;;;;;;2.03;1.60;;;;;;;;;;6326863;28;20074;-80
2022/05/30 19:44:15;;;;;;;3.58;1.50;;;;;;;;;;6345735;27;20063;-80
2022/05/30 19:47:21;;;;;;;1.30;1.20;;;;;;;;;;6327168;28;20055;-80
2022/05/30 19:50:22;;;;;;;1.70;1.50;;;;;;;;;;6340155;27;20047;-81
2022/05/30 19:53:25;;;;;;;2.85;1.40;;;;;;;;;;6342314;28;20055;-80